sensor_id;sensor_type;location;lat;lon;timestamp;pressure;altitude;pressure_sealevel;temperature;humidity
64192;BME280;50497;50.720;-2.084;2024-01-11T00:02:21;103631.59;;;-0.11;100.00
64192;BME280;50497;50.720;-2.084;2024-01-11T00:04:47;103623.44;;;0.04;100.00
64192;BME280;50497;50.720;-2.084;2024-01-11T00:07:12;103617.34;;;-0.16;100.00
64192;BME280;50497;50.720;-2.084;2024-01-11T00:09:41;103616.81;;;-0.07;100.00
64192;BME280;50497;50.720;-2.084;2024-01-11T00:12:07;103606.88;;;-0.14;100.00
64192;BME280;50497;50.720;-2.084;2024-01-11T00:14:33;103628.72;;;0.04;100.00
64192;BME280;50497;50.720;-2.084;2024-01-11T00:16:58;103627.03;;;0.06;100.00
64192;BME280;50497;50.720;-2.084;2024-01-11T00:19:23;103624.75;;;0.14;100.00
64192;BME280;50497;50.720;-2.084;2024-01-11T00:21:49;103608.75;;;0.09;100.00
64192;BME280;50497;50.720;-2.084;2024-01-11T00:24:15;103619.91;;;0.25;100.00
64192;BME280;50497;50.720;-2.084;2024-01-11T00:26:40;103617.66;;;0.34;100.00
64192;BME280;50497;50.720;-2.084;2024-01-11T00:29:07;103613.28;;;0.34;100.00
64192;BME280;50497;50.720;-2.084;2024-01-11T00:31:33;103618.81;;;0.41;100.00
64192;BME280;50497;50.720;-2.084;2024-01-11T00:33:58;103619.25;;;0.51;100.00
64192;BME280;50497;50.720;-2.084;2024-01-11T00:36:24;103604.34;;;0.52;100.00
64192;BME280;50497;50.720;-2.084;2024-01-11T00:38:49;103613.41;;;0.59;100.00
64192;BME280;50497;50.720;-2.084;2024-01-11T00:41:14;103607.41;;;0.63;100.00
64192;BME280;50497;50.720;-2.084;2024-01-11T00:43:40;103620.00;;;0.70;100.00
64192;BME280;50497;50.720;-2.084;2024-01-11T00:46:05;103621.09;;;0.75;100.00
64192;BME280;50497;50.720;-2.084;2024-01-11T00:48:31;103619.34;;;0.76;100.00
64192;BME280;50497;50.720;-2.084;2024-01-11T00:50:56;103627.56;;;0.83;100.00
64192;BME280;50497;50.720;-2.084;2024-01-11T00:53:22;103604.06;;;0.67;100.00
64192;BME280;50497;50.720;-2.084;2024-01-11T00:55:47;103635.88;;;0.94;100.00
64192;BME280;50497;50.720;-2.084;2024-01-11T00:58:15;103635.00;;;0.94;100.00
64192;BME280;50497;50.720;-2.084;2024-01-11T01:00:41;103642.22;;;0.99;100.00
64192;BME280;50497;50.720;-2.084;2024-01-11T01:03:06;103642.28;;;1.01;100.00
64192;BME280;50497;50.720;-2.084;2024-01-11T01:05:32;103651.16;;;1.03;100.00
64192;BME280;50497;50.720;-2.084;2024-01-11T01:07:57;103648.50;;;1.03;100.00
64192;BME280;50497;50.720;-2.084;2024-01-11T01:10:22;103652.41;;;1.13;100.00
64192;BME280;50497;50.720;-2.084;2024-01-11T01:12:48;103651.34;;;1.07;100.00
64192;BME280;50497;50.720;-2.084;2024-01-11T01:15:14;103645.03;;;1.04;100.00
64192;BME280;50497;50.720;-2.084;2024-01-11T01:17:39;103663.88;;;1.13;100.00
64192;BME280;50497;50.720;-2.084;2024-01-11T01:20:08;103667.41;;;1.14;100.00
64192;BME280;50497;50.720;-2.084;2024-01-11T01:22:34;103658.66;;;1.15;100.00
64192;BME280;50497;50.720;-2.084;2024-01-11T01:24:59;103659.31;;;1.09;100.00
64192;BME280;50497;50.720;-2.084;2024-01-11T01:27:25;103670.94;;;1.14;100.00
64192;BME280;50497;50.720;-2.084;2024-01-11T01:29:50;103680.91;;;1.21;100.00
64192;BME280;50497;50.720;-2.084;2024-01-11T01:32:15;103665.66;;;1.14;100.00
64192;BME280;50497;50.720;-2.084;2024-01-11T01:34:41;103685.19;;;1.19;100.00
64192;BME280;50497;50.720;-2.084;2024-01-11T01:37:06;103664.56;;;1.09;100.00
64192;BME280;50497;50.720;-2.084;2024-01-11T01:39:32;103700.06;;;1.17;100.00
64192;BME280;50497;50.720;-2.084;2024-01-11T01:41:57;103694.09;;;1.21;100.00
64192;BME280;50497;50.720;-2.084;2024-01-11T01:44:23;103707.41;;;1.26;100.00
64192;BME280;50497;50.720;-2.084;2024-01-11T01:46:49;103703.97;;;1.27;100.00
64192;BME280;50497;50.720;-2.084;2024-01-11T01:49:15;103704.72;;;1.24;100.00
64192;BME280;50497;50.720;-2.084;2024-01-11T01:51:43;103685.25;;;1.21;100.00
64192;BME280;50497;50.720;-2.084;2024-01-11T01:54:09;103707.41;;;1.26;100.00
64192;BME280;50497;50.720;-2.084;2024-01-11T01:56:34;103701.31;;;1.27;100.00
64192;BME280;50497;50.720;-2.084;2024-01-11T01:59:00;103704.16;;;1.32;100.00
64192;BME280;50497;50.720;-2.084;2024-01-11T02:01:26;103709.53;;;1.35;100.00
64192;BME280;50497;50.720;-2.084;2024-01-11T02:03:54;103714.81;;;1.35;100.00
64192;BME280;50497;50.720;-2.084;2024-01-11T02:06:21;103720.19;;;1.38;100.00
64192;BME280;50497;50.720;-2.084;2024-01-11T02:08:48;103729.59;;;1.31;100.00
64192;BME280;50497;50.720;-2.084;2024-01-11T02:11:17;103734.34;;;1.40;100.00
64192;BME280;50497;50.720;-2.084;2024-01-11T02:13:44;103742.34;;;1.41;100.00
64192;BME280;50497;50.720;-2.084;2024-01-11T02:16:11;103756.41;;;1.42;100.00
64192;BME280;50497;50.720;-2.084;2024-01-11T02:18:37;103771.41;;;1.43;100.00
64192;BME280;50497;50.720;-2.084;2024-01-11T02:21:06;103779.38;;;1.44;100.00
64192;BME280;50497;50.720;-2.084;2024-01-11T02:23:36;103789.81;;;1.41;100.00
64192;BME280;50497;50.720;-2.084;2024-01-11T02:26:04;103792.53;;;1.43;100.00
64192;BME280;50497;50.720;-2.084;2024-01-11T02:28:30;103788.91;;;1.41;100.00
64192;BME280;50497;50.720;-2.084;2024-01-11T02:30:55;103815.34;;;1.42;100.00
64192;BME280;50497;50.720;-2.084;2024-01-11T02:33:21;103805.81;;;1.46;100.00
64192;BME280;50497;50.720;-2.084;2024-01-11T02:35:46;103799.25;;;1.35;100.00
64192;BME280;50497;50.720;-2.084;2024-01-11T02:38:12;103803.03;;;1.41;100.00
64192;BME280;50497;50.720;-2.084;2024-01-11T02:40:38;103812.72;;;1.42;100.00
64192;BME280;50497;50.720;-2.084;2024-01-11T02:43:10;103826.09;;;1.47;100.00
64192;BME280;50497;50.720;-2.084;2024-01-11T02:45:36;103824.22;;;1.44;100.00
64192;BME280;50497;50.720;-2.084;2024-01-11T02:48:02;103819.53;;;1.37;100.00
64192;BME280;50497;50.720;-2.084;2024-01-11T02:50:27;103832.94;;;1.42;100.00
64192;BME280;50497;50.720;-2.084;2024-01-11T02:52:52;103839.75;;;1.37;100.00
64192;BME280;50497;50.720;-2.084;2024-01-11T02:55:18;103837.81;;;1.33;100.00
64192;BME280;50497;50.720;-2.084;2024-01-11T02:57:43;103839.38;;;1.27;100.00
64192;BME280;50497;50.720;-2.084;2024-01-11T03:00:09;103855.53;;;1.35;100.00
64192;BME280;50497;50.720;-2.084;2024-01-11T03:02:37;103858.91;;;1.33;100.00
64192;BME280;50497;50.720;-2.084;2024-01-11T03:05:03;103844.41;;;1.21;100.00
64192;BME280;50497;50.720;-2.084;2024-01-11T03:07:29;103856.13;;;1.28;100.00
64192;BME280;50497;50.720;-2.084;2024-01-11T03:09:55;103873.03;;;1.33;100.00
64192;BME280;50497;50.720;-2.084;2024-01-11T03:12:21;103861.31;;;1.26;100.00
64192;BME280;50497;50.720;-2.084;2024-01-11T03:14:47;103879.00;;;1.29;100.00
64192;BME280;50497;50.720;-2.084;2024-01-11T03:17:13;103883.31;;;1.27;100.00
64192;BME280;50497;50.720;-2.084;2024-01-11T03:19:41;103884.06;;;1.24;100.00
64192;BME280;50497;50.720;-2.084;2024-01-11T03:22:07;103867.16;;;1.19;100.00
64192;BME280;50497;50.720;-2.084;2024-01-11T03:24:32;103885.19;;;1.29;100.00
64192;BME280;50497;50.720;-2.084;2024-01-11T03:26:58;103889.34;;;1.24;100.00
64192;BME280;50497;50.720;-2.084;2024-01-11T03:29:23;103862.03;;;1.22;100.00
64192;BME280;50497;50.720;-2.084;2024-01-11T03:31:49;103888.34;;;1.21;100.00
64192;BME280;50497;50.720;-2.084;2024-01-11T03:34:14;103892.84;;;1.23;100.00
64192;BME280;50497;50.720;-2.084;2024-01-11T03:36:40;103885.81;;;1.24;100.00
64192;BME280;50497;50.720;-2.084;2024-01-11T03:39:05;103882.75;;;1.13;100.00
64192;BME280;50497;50.720;-2.084;2024-01-11T03:41:31;103893.69;;;1.22;100.00
64192;BME280;50497;50.720;-2.084;2024-01-11T03:43:57;103892.78;;;1.22;100.00
64192;BME280;50497;50.720;-2.084;2024-01-11T03:46:22;103913.00;;;1.21;100.00
64192;BME280;50497;50.720;-2.084;2024-01-11T03:48:47;103912.13;;;1.22;100.00
64192;BME280;50497;50.720;-2.084;2024-01-11T03:51:13;103903.41;;;1.23;100.00
64192;BME280;50497;50.720;-2.084;2024-01-11T03:53:38;103915.72;;;1.24;100.00
64192;BME280;50497;50.720;-2.084;2024-01-11T03:56:04;103918.63;;;1.31;100.00
64192;BME280;50497;50.720;-2.084;2024-01-11T03:58:29;103919.22;;;1.23;100.00
64192;BME280;50497;50.720;-2.084;2024-01-11T04:00:55;103905.69;;;1.16;100.00
64192;BME280;50497;50.720;-2.084;2024-01-11T04:03:20;103892.81;;;1.02;100.00
64192;BME280;50497;50.720;-2.084;2024-01-11T04:05:46;103910.00;;;1.14;100.00
64192;BME280;50497;50.720;-2.084;2024-01-11T04:08:11;103910.84;;;1.13;100.00
64192;BME280;50497;50.720;-2.084;2024-01-11T04:10:37;103905.69;;;1.16;100.00
64192;BME280;50497;50.720;-2.084;2024-01-11T04:13:02;103912.59;;;1.12;100.00
64192;BME280;50497;50.720;-2.084;2024-01-11T04:15:28;103911.63;;;1.10;100.00
64192;BME280;50497;50.720;-2.084;2024-01-11T04:17:53;103910.69;;;1.09;100.00
64192;BME280;50497;50.720;-2.084;2024-01-11T04:20:19;103910.59;;;1.06;100.00
64192;BME280;50497;50.720;-2.084;2024-01-11T04:22:44;103897.06;;;0.99;100.00
64192;BME280;50497;50.720;-2.084;2024-01-11T04:25:10;103908.72;;;1.04;100.00
64192;BME280;50497;50.720;-2.084;2024-01-11T04:27:35;103894.31;;;0.96;100.00
64192;BME280;50497;50.720;-2.084;2024-01-11T04:30:01;103906.97;;;1.04;100.00
64192;BME280;50497;50.720;-2.084;2024-01-11T04:32:26;103903.44;;;1.04;100.00
64192;BME280;50497;50.720;-2.084;2024-01-11T04:34:51;103911.22;;;1.01;100.00
64192;BME280;50497;50.720;-2.084;2024-01-11T04:37:18;103887.09;;;0.91;100.00
64192;BME280;50497;50.720;-2.084;2024-01-11T04:39:43;103904.25;;;1.03;100.00
64192;BME280;50497;50.720;-2.084;2024-01-11T04:42:09;103913.31;;;1.08;100.00
64192;BME280;50497;50.720;-2.084;2024-01-11T04:44:34;103913.31;;;1.08;100.00
64192;BME280;50497;50.720;-2.084;2024-01-11T04:47:00;103903.16;;;0.98;100.00
64192;BME280;50497;50.720;-2.084;2024-01-11T04:49:25;103909.38;;;0.98;100.00
64192;BME280;50497;50.720;-2.084;2024-01-11T04:51:50;103913.16;;;1.05;100.00
64192;BME280;50497;50.720;-2.084;2024-01-11T04:54:16;103911.44;;;1.05;100.00
64192;BME280;50497;50.720;-2.084;2024-01-11T04:56:41;103899.66;;;0.97;100.00
64192;BME280;50497;50.720;-2.084;2024-01-11T04:59:07;103916.63;;;1.04;100.00
64192;BME280;50497;50.720;-2.084;2024-01-11T05:01:32;103918.59;;;1.08;100.00
64192;BME280;50497;50.720;-2.084;2024-01-11T05:03:58;103905.13;;;1.02;100.00
64192;BME280;50497;50.720;-2.084;2024-01-11T05:06:23;103923.19;;;1.14;100.00
64192;BME280;50497;50.720;-2.084;2024-01-11T05:08:51;103910.84;;;1.13;100.00
64192;BME280;50497;50.720;-2.084;2024-01-11T05:11:21;103913.47;;;1.13;100.00
64192;BME280;50497;50.720;-2.084;2024-01-11T05:13:48;103897.22;;;1.02;100.00
64192;BME280;50497;50.720;-2.084;2024-01-11T05:16:27;103918.50;;;1.06;100.00
64192;BME280;50497;50.720;-2.084;2024-01-11T05:18:55;103914.25;;;1.10;100.00
64192;BME280;50497;50.720;-2.084;2024-01-11T05:21:21;103866.63;;;0.86;100.00
64192;BME280;50497;50.720;-2.084;2024-01-11T05:23:47;103912.81;;;0.97;100.00
64192;BME280;50497;50.720;-2.084;2024-01-11T05:26:15;103911.00;;;0.96;100.00
64192;BME280;50497;50.720;-2.084;2024-01-11T05:28:40;103908.31;;;0.95;100.00
64192;BME280;50497;50.720;-2.084;2024-01-11T05:31:09;103896.66;;;0.89;100.00
64192;BME280;50497;50.720;-2.084;2024-01-11T05:33:34;103895.09;;;0.93;100.00
64192;BME280;50497;50.720;-2.084;2024-01-11T05:36:00;103911.94;;;0.97;100.00
64192;BME280;50497;50.720;-2.084;2024-01-11T05:38:25;103908.44;;;0.98;100.00
64192;BME280;50497;50.720;-2.084;2024-01-11T05:40:51;103919.91;;;0.98;100.00
64192;BME280;50497;50.720;-2.084;2024-01-11T05:43:16;103921.75;;;1.01;100.00
64192;BME280;50497;50.720;-2.084;2024-01-11T05:45:42;103919.00;;;0.98;100.00
64192;BME280;50497;50.720;-2.084;2024-01-11T05:48:07;103911.94;;;0.97;100.00
64192;BME280;50497;50.720;-2.084;2024-01-11T05:50:32;103913.72;;;0.98;100.00
64192;BME280;50497;50.720;-2.084;2024-01-11T05:52:58;103906.53;;;0.94;100.00
64192;BME280;50497;50.720;-2.084;2024-01-11T05:55:23;103892.84;;;0.83;100.00
64192;BME280;50497;50.720;-2.084;2024-01-11T05:57:49;103913.56;;;0.95;100.00
64192;BME280;50497;50.720;-2.084;2024-01-11T06:00:14;103921.38;;;0.91;100.00
64192;BME280;50497;50.720;-2.084;2024-01-11T06:02:40;103911.59;;;0.89;100.00
64192;BME280;50497;50.720;-2.084;2024-01-11T06:05:08;103920.53;;;0.92;100.00
64192;BME280;50497;50.720;-2.084;2024-01-11T06:07:34;103918.81;;;0.93;100.00
64192;BME280;50497;50.720;-2.084;2024-01-11T06:09:59;103924.03;;;0.91;100.00
64192;BME280;50497;50.720;-2.084;2024-01-11T06:12:26;103926.59;;;0.90;100.00
64192;BME280;50497;50.720;-2.084;2024-01-11T06:14:53;103930.09;;;0.90;100.00
64192;BME280;50497;50.720;-2.084;2024-01-11T06:17:18;103922.00;;;0.86;100.00
64192;BME280;50497;50.720;-2.084;2024-01-11T06:19:43;103922.06;;;0.87;100.00
64192;BME280;50497;50.720;-2.084;2024-01-11T06:22:09;103912.03;;;0.79;100.00
64192;BME280;50497;50.720;-2.084;2024-01-11T06:24:34;103942.06;;;0.82;100.00
64192;BME280;50497;50.720;-2.084;2024-01-11T06:27:00;103934.97;;;0.81;100.00
64192;BME280;50497;50.720;-2.084;2024-01-11T06:29:25;103930.63;;;0.82;100.00
64192;BME280;50497;50.720;-2.084;2024-01-11T06:31:50;103917.78;;;0.70;100.00
64192;BME280;50497;50.720;-2.084;2024-01-11T06:34:16;103922.78;;;0.64;100.00
64192;BME280;50497;50.720;-2.084;2024-01-11T06:36:41;103934.56;;;0.52;100.00
64192;BME280;50497;50.720;-2.084;2024-01-11T06:39:06;103936.00;;;0.46;100.00
64192;BME280;50497;50.720;-2.084;2024-01-11T06:41:33;103942.25;;;0.48;100.00
64192;BME280;50497;50.720;-2.084;2024-01-11T06:43:59;103932.72;;;0.50;100.00
64192;BME280;50497;50.720;-2.084;2024-01-11T06:46:24;103936.50;;;0.37;100.00
64192;BME280;50497;50.720;-2.084;2024-01-11T06:48:50;103926.84;;;0.38;100.00
64192;BME280;50497;50.720;-2.084;2024-01-11T06:51:15;103931.75;;;0.30;100.00
64192;BME280;50497;50.720;-2.084;2024-01-11T06:53:41;103926.72;;;0.34;100.00
64192;BME280;50497;50.720;-2.084;2024-01-11T06:56:17;103931.63;;;0.27;100.00
64192;BME280;50497;50.720;-2.084;2024-01-11T06:58:44;103936.22;;;0.31;100.00
64192;BME280;50497;50.720;-2.084;2024-01-11T07:01:10;103898.50;;;0.12;100.00
64192;BME280;50497;50.720;-2.084;2024-01-11T07:03:36;103917.91;;;0.34;100.00
64192;BME280;50497;50.720;-2.084;2024-01-11T07:06:02;103925.94;;;0.17;100.00
64192;BME280;50497;50.720;-2.084;2024-01-11T07:08:28;103934.38;;;0.30;100.00
64192;BME280;50497;50.720;-2.084;2024-01-11T07:10:54;103954.78;;;0.34;100.00
64192;BME280;50497;50.720;-2.084;2024-01-11T07:13:19;103918.31;;;0.24;100.00
64192;BME280;50497;50.720;-2.084;2024-01-11T07:15:45;103941.88;;;0.21;100.00
64192;BME280;50497;50.720;-2.084;2024-01-11T07:18:10;103958.38;;;0.36;100.00
64192;BME280;50497;50.720;-2.084;2024-01-11T07:20:35;103954.94;;;0.37;100.00
64192;BME280;50497;50.720;-2.084;2024-01-11T07:23:01;103960.69;;;0.28;100.00
64192;BME280;50497;50.720;-2.084;2024-01-11T07:25:26;103966.28;;;0.36;100.00
64192;BME280;50497;50.720;-2.084;2024-01-11T07:27:52;103960.22;;;0.37;100.00
64192;BME280;50497;50.720;-2.084;2024-01-11T07:30:17;103955.53;;;0.31;100.00
64192;BME280;50497;50.720;-2.084;2024-01-11T07:32:46;103967.81;;;0.31;100.00
64192;BME280;50497;50.720;-2.084;2024-01-11T07:35:11;103977.53;;;0.32;100.00
64192;BME280;50497;50.720;-2.084;2024-01-11T07:37:38;103970.16;;;0.25;100.00
64192;BME280;50497;50.720;-2.084;2024-01-11T07:40:04;103980.34;;;0.36;100.00
64192;BME280;50497;50.720;-2.084;2024-01-11T07:42:35;103983.63;;;0.31;100.00
64192;BME280;50497;50.720;-2.084;2024-01-11T07:45:01;103972.94;;;0.28;100.00
64192;BME280;50497;50.720;-2.084;2024-01-11T07:47:26;103981.59;;;0.25;100.00
64192;BME280;50497;50.720;-2.084;2024-01-11T07:49:52;103949.06;;;0.05;100.00
64192;BME280;50497;50.720;-2.084;2024-01-11T07:52:17;104000.13;;;0.27;100.00
64192;BME280;50497;50.720;-2.084;2024-01-11T07:54:43;103993.34;;;0.32;100.00
64192;BME280;50497;50.720;-2.084;2024-01-11T07:57:08;104007.94;;;0.25;100.00
64192;BME280;50497;50.720;-2.084;2024-01-11T07:59:34;104010.50;;;0.24;100.00
64192;BME280;50497;50.720;-2.084;2024-01-11T08:02:01;104014.50;;;0.15;100.00
64192;BME280;50497;50.720;-2.084;2024-01-11T08:04:27;104023.59;;;0.22;100.00
64192;BME280;50497;50.720;-2.084;2024-01-11T08:06:52;104033.34;;;0.25;100.00
64192;BME280;50497;50.720;-2.084;2024-01-11T08:09:18;104029.66;;;0.21;100.00
64192;BME280;50497;50.720;-2.084;2024-01-11T08:11:43;104021.47;;;0.15;100.00
64192;BME280;50497;50.720;-2.084;2024-01-11T08:14:09;104020.41;;;0.11;100.00
64192;BME280;50497;50.720;-2.084;2024-01-11T08:16:34;104025.09;;;0.17;100.00
64192;BME280;50497;50.720;-2.084;2024-01-11T08:19:00;104030.06;;;0.11;100.00
64192;BME280;50497;50.720;-2.084;2024-01-11T08:21:26;104034.13;;;0.22;100.00
64192;BME280;50497;50.720;-2.084;2024-01-11T08:23:51;104030.06;;;0.11;100.00
64192;BME280;50497;50.720;-2.084;2024-01-11T08:26:17;104027.66;;;0.15;100.00
64192;BME280;50497;50.720;-2.084;2024-01-11T08:28:46;104032.84;;;0.14;100.00
64192;BME280;50497;50.720;-2.084;2024-01-11T08:31:12;104028.41;;;0.13;100.00
64192;BME280;50497;50.720;-2.084;2024-01-11T08:33:37;104019.06;;;0.02;100.00
64192;BME280;50497;50.720;-2.084;2024-01-11T08:36:06;104028.78;;;0.21;100.00
64192;BME280;50497;50.720;-2.084;2024-01-11T08:38:32;104036.53;;;0.17;100.00
64192;BME280;50497;50.720;-2.084;2024-01-11T08:40:57;104034.88;;;0.20;100.00
64192;BME280;50497;50.720;-2.084;2024-01-11T08:43:25;104044.50;;;0.19;100.00
64192;BME280;50497;50.720;-2.084;2024-01-11T08:45:50;104049.22;;;0.26;100.00
64192;BME280;50497;50.720;-2.084;2024-01-11T08:48:16;104046.44;;;0.23;100.00
64192;BME280;50497;50.720;-2.084;2024-01-11T08:50:42;104061.03;;;0.34;100.00
64192;BME280;50497;50.720;-2.084;2024-01-11T08:53:07;104059.19;;;0.32;100.00
64192;BME280;50497;50.720;-2.084;2024-01-11T08:55:33;104052.78;;;0.27;100.00
64192;BME280;50497;50.720;-2.084;2024-01-11T08:57:58;104050.75;;;0.21;100.00
64192;BME280;50497;50.720;-2.084;2024-01-11T09:00:24;104061.34;;;0.23;100.00
64192;BME280;50497;50.720;-2.084;2024-01-11T09:02:49;104066.94;;;0.29;100.00
64192;BME280;50497;50.720;-2.084;2024-01-11T09:05:15;104069.31;;;0.42;100.00
64192;BME280;50497;50.720;-2.084;2024-01-11T09:07:40;104069.31;;;0.42;100.00
64192;BME280;50497;50.720;-2.084;2024-01-11T09:10:06;104074.03;;;0.49;100.00
64192;BME280;50497;50.720;-2.084;2024-01-11T09:12:36;104068.50;;;0.43;100.00
64192;BME280;50497;50.720;-2.084;2024-01-11T09:15:03;104086.56;;;0.53;100.00
64192;BME280;50497;50.720;-2.084;2024-01-11T09:17:28;104083.00;;;0.53;100.00
64192;BME280;50497;50.720;-2.084;2024-01-11T09:19:53;104077.22;;;0.60;100.00
64192;BME280;50497;50.720;-2.084;2024-01-11T09:22:19;104083.38;;;0.61;100.00
64192;BME280;50497;50.720;-2.084;2024-01-11T09:24:44;104067.56;;;0.61;100.00
64192;BME280;50497;50.720;-2.084;2024-01-11T09:27:10;104090.97;;;0.72;100.00
64192;BME280;50497;50.720;-2.084;2024-01-11T09:29:35;104093.81;;;0.77;100.00
64192;BME280;50497;50.720;-2.084;2024-01-11T09:32:01;104087.59;;;0.75;100.00
64192;BME280;50497;50.720;-2.084;2024-01-11T09:34:26;104093.75;;;0.76;100.00
64192;BME280;50497;50.720;-2.084;2024-01-11T09:36:52;104117.13;;;0.87;100.00
64192;BME280;50497;50.720;-2.084;2024-01-11T09:39:17;104109.31;;;0.89;100.00
64192;BME280;50497;50.720;-2.084;2024-01-11T09:42:06;104115.78;;;0.96;100.00
64192;BME280;50497;50.720;-2.084;2024-01-11T09:44:33;104110.63;;;0.99;100.00
64192;BME280;50497;50.720;-2.084;2024-01-11T09:47:00;104109.88;;;1.01;100.00
64192;BME280;50497;50.720;-2.084;2024-01-11T09:49:27;104126.91;;;1.08;100.00
64192;BME280;50497;50.720;-2.084;2024-01-11T09:51:55;104120.38;;;1.19;100.00
64192;BME280;50497;50.720;-2.084;2024-01-11T09:54:23;104112.13;;;1.12;100.00
64192;BME280;50497;50.720;-2.084;2024-01-11T09:56:50;104121.28;;;1.20;100.00
64192;BME280;50497;50.720;-2.084;2024-01-11T09:59:20;104121.97;;;1.16;100.00
64192;BME280;50497;50.720;-2.084;2024-01-11T10:01:47;104134.94;;;1.31;100.00
64192;BME280;50497;50.720;-2.084;2024-01-11T10:04:14;104128.28;;;1.39;100.00
64192;BME280;50497;50.720;-2.084;2024-01-11T10:06:41;104131.22;;;1.45;100.00
64192;BME280;50497;50.720;-2.084;2024-01-11T10:09:07;104124.19;;;1.45;100.00
64192;BME280;50497;50.720;-2.084;2024-01-11T10:11:32;104130.66;;;1.52;100.00
64192;BME280;50497;50.720;-2.084;2024-01-11T10:13:59;104143.25;;;1.58;100.00
64192;BME280;50497;50.720;-2.084;2024-01-11T10:16:27;104135.94;;;1.52;100.00
64192;BME280;50497;50.720;-2.084;2024-01-11T10:18:56;104146.13;;;1.64;100.00
64192;BME280;50497;50.720;-2.084;2024-01-11T10:21:23;104155.06;;;1.67;100.00
64192;BME280;50497;50.720;-2.084;2024-01-11T10:23:51;104157.84;;;1.71;100.00
64192;BME280;50497;50.720;-2.084;2024-01-11T10:26:17;104151.97;;;1.76;100.00
64192;BME280;50497;50.720;-2.084;2024-01-11T10:28:46;104126.91;;;1.66;100.00
64192;BME280;50497;50.720;-2.084;2024-01-11T10:31:12;104156.88;;;1.88;100.00
64192;BME280;50497;50.720;-2.084;2024-01-11T10:33:40;104141.84;;;1.87;100.00
64192;BME280;50497;50.720;-2.084;2024-01-11T10:36:06;104167.72;;;2.15;100.00
64192;BME280;50497;50.720;-2.084;2024-01-11T10:38:36;104155.66;;;2.87;100.00
64192;BME280;50497;50.720;-2.084;2024-01-11T10:41:05;104161.03;;;3.11;100.00
64192;BME280;50497;50.720;-2.084;2024-01-11T10:43:32;104172.63;;;3.37;100.00
64192;BME280;50497;50.720;-2.084;2024-01-11T10:46:01;104178.34;;;3.49;100.00
64192;BME280;50497;50.720;-2.084;2024-01-11T10:48:30;104187.69;;;3.40;100.00
64192;BME280;50497;50.720;-2.084;2024-01-11T10:51:02;104183.38;;;3.66;100.00
64192;BME280;50497;50.720;-2.084;2024-01-11T10:53:47;104181.44;;;3.62;100.00
64192;BME280;50497;50.720;-2.084;2024-01-11T10:56:14;104169.38;;;3.22;100.00
64192;BME280;50497;50.720;-2.084;2024-01-11T10:58:41;104186.28;;;3.98;100.00
64192;BME280;50497;50.720;-2.084;2024-01-11T11:01:11;104198.19;;;3.85;100.00
64192;BME280;50497;50.720;-2.084;2024-01-11T11:03:38;104206.84;;;3.57;100.00
64192;BME280;50497;50.720;-2.084;2024-01-11T11:06:07;104227.25;;;4.32;100.00
64192;BME280;50497;50.720;-2.084;2024-01-11T11:08:33;104240.97;;;4.73;100.00
64192;BME280;50497;50.720;-2.084;2024-01-11T11:11:03;104275.25;;;4.41;100.00
64192;BME280;50497;50.720;-2.084;2024-01-11T11:13:32;104298.41;;;4.21;100.00
64192;BME280;50497;50.720;-2.084;2024-01-11T11:15:57;104301.53;;;5.12;100.00
64192;BME280;50497;50.720;-2.084;2024-01-11T11:18:24;104299.50;;;4.02;100.00
64192;BME280;50497;50.720;-2.084;2024-01-11T11:20:50;104415.66;;;4.14;100.00
64192;BME280;50497;50.720;-2.084;2024-01-11T11:23:18;104429.78;;;4.37;100.00
64192;BME280;50497;50.720;-2.084;2024-01-11T11:25:48;104464.34;;;4.40;100.00
64192;BME280;50497;50.720;-2.084;2024-01-11T11:28:15;104498.66;;;4.82;100.00
64192;BME280;50497;50.720;-2.084;2024-01-11T11:30:43;104544.47;;;4.78;100.00
64192;BME280;50497;50.720;-2.084;2024-01-11T11:35:48;104606.38;;;4.77;100.00
64192;BME280;50497;50.720;-2.084;2024-01-11T11:38:18;104619.19;;;5.11;100.00
64192;BME280;50497;50.720;-2.084;2024-01-11T11:40:46;104619.41;;;5.42;100.00
64192;BME280;50497;50.720;-2.084;2024-01-11T11:43:13;104648.66;;;5.67;100.00
64192;BME280;50497;50.720;-2.084;2024-01-11T11:45:40;104680.78;;;5.98;100.00
64192;BME280;50497;50.720;-2.084;2024-01-11T11:51:17;104733.47;;;5.85;100.00
64192;BME280;50497;50.720;-2.084;2024-01-11T11:53:43;104745.91;;;6.10;100.00
64192;BME280;50497;50.720;-2.084;2024-01-11T11:56:10;104763.00;;;5.24;100.00
64192;BME280;50497;50.720;-2.084;2024-01-11T11:58:36;104783.41;;;5.25;100.00
64192;BME280;50497;50.720;-2.084;2024-01-11T12:01:03;104776.47;;;4.85;100.00
64192;BME280;50497;50.720;-2.084;2024-01-11T12:03:30;104756.22;;;4.66;100.00
64192;BME280;50497;50.720;-2.084;2024-01-11T12:05:57;104763.59;;;4.73;100.00
64192;BME280;50497;50.720;-2.084;2024-01-11T12:08:23;104760.31;;;4.78;100.00
64192;BME280;50497;50.720;-2.084;2024-01-11T12:10:48;104730.00;;;5.17;100.00
64192;BME280;50497;50.720;-2.084;2024-01-11T12:13:14;104716.84;;;5.67;100.00
64192;BME280;50497;50.720;-2.084;2024-01-11T12:15:40;104719.56;;;5.68;100.00
64192;BME280;50497;50.720;-2.084;2024-01-11T12:18:06;104728.00;;;5.34;100.00
64192;BME280;50497;50.720;-2.084;2024-01-11T12:20:35;104729.00;;;5.37;100.00
64192;BME280;50497;50.720;-2.084;2024-01-11T12:23:01;104736.41;;;5.22;100.00
64192;BME280;50497;50.720;-2.084;2024-01-11T12:25:27;104736.72;;;5.30;100.00
64192;BME280;50497;50.720;-2.084;2024-01-11T12:27:53;104742.41;;;5.41;100.00
64192;BME280;50497;50.720;-2.084;2024-01-11T12:30:18;104736.66;;;5.28;100.00
64192;BME280;50497;50.720;-2.084;2024-01-11T12:32:44;104738.19;;;5.46;100.00
64192;BME280;50497;50.720;-2.084;2024-01-11T12:35:10;104713.75;;;5.32;100.00
64192;BME280;50497;50.720;-2.084;2024-01-11T12:37:36;104727.69;;;5.49;100.00
64192;BME280;50497;50.720;-2.084;2024-01-11T12:40:01;104709.94;;;5.48;100.00
64192;BME280;50497;50.720;-2.084;2024-01-11T12:42:27;104720.78;;;5.54;100.00